Terminal Aerodrome Forecast
Issued by NWS

Home | Current Version | Previous Version | Text Only | Print | Product List | Glossary On
Versions: 1 2 3 4 5 6 7 8 9 10 11 12 13 14 15
000
FTUS45 KTFX 271746 CCA
TAFGTF
TAF COR
KGTF 271746Z 2718/2818 21015G30KT P6SM FEW090
     FM280200 35010G20KT P6SM SCT080 SCT120
     FM280700 02010KT P6SM BKN040=

USA.gov is the U.S. government's official web portal to all federal, state and local government web resources and services.